ダブリン の空港の天気 - METARとTAF

ダブリン空港 ( EIDW / DUB ) - アイルランド ダブリン
飛行場実況気象(Metar)
観測時間02/27 20:30 GMT (02/27 20:30 UTC)
風向・風速西 5m/s
視程10km以上
天気現象
少しの雲 雲底高度 640m
気温2℃
湿度87%
気圧982hPa
METAREIDW 272030Z 26010KT 9999 FEW021 02/00 Q0982 NOSIG
過去の天気等 Google飛行場航空写真 Wunderground天気予報

過去48時間のMETAR

飛行場予報(TAF)
発表時間: 2/27 17:00 GMT (2/27 17:00 UTC)
予報対象時間: 27日18時 GMT ~ 28日18時 GMT
風向・風速西 6m/s
視程10km以上
少しの雲 雲底高度 610m
全天の4割程度の雲 雲底高度 910m
27日18時 GMT ~ 27日21時 GMT に一時的に
天気現象弱いしゅう雨
全天の8割程度の雲 雲底高度 370m
全天の4割程度の積乱雲 雲底高度 550m
27日21時 GMT ~ 28日3時 GMT に一時的に
全天の8割程度の雲 雲底高度 460m
28日1時 GMT ~ 28日7時 GMT に 確率 30% で一時的に
視程4,000m
天気現象もや
全天の8割程度の雲 雲底高度 300m
28日7時 GMT ~ 28日10時 GMT に徐々に
風向・風速西 9m/s 瞬間風速 14m/s
28日8時 GMT ~ 28日12時 GMT に一時的に
視程5,000m
天気現象弱い雨
全天の8割程度の雲 雲底高度 300m
28日10時 GMT ~ 28日12時 GMT に徐々に
風向・風速西 12m/s 瞬間風速 20m/s
28日16時 GMT ~ 28日18時 GMT に徐々に
風向・風速西 10m/s 瞬間風速 16m/s
TAF EIDW 271700Z 2718/2818 26011KT 9999 FEW020 SCT030
TEMPO 2718/2721 -SHRA BKN012 SCT018CB
TEMPO 2721/2803 BKN015
PROB30 TEMPO 2801/2807 4000 BR BKN010
BECMG 2807/2810 26017G28KT
TEMPO 2808/2812 5000 -RA BKN010
BECMG 2810/2812 27024G38KT
BECMG 2816/2818 28020G32KT